sensor_id;sensor_type;location;lat;lon;timestamp;pressure;altitude;pressure_sealevel;temperature;humidity
55656;BME280;41530;52.382;5.270;2022-07-17T00:01:30;102974.34;;;24.39;38.99
55656;BME280;41530;52.382;5.270;2022-07-17T00:03:57;102967.28;;;24.38;38.96
55656;BME280;41530;52.382;5.270;2022-07-17T00:06:24;102967.28;;;24.38;39.03
55656;BME280;41530;52.382;5.270;2022-07-17T00:08:50;102964.59;;;24.38;38.97
55656;BME280;41530;52.382;5.270;2022-07-17T00:11:17;102966.28;;;24.39;39.06
55656;BME280;41530;52.382;5.270;2022-07-17T00:13:43;102968.25;;;24.37;38.99
55656;BME280;41530;52.382;5.270;2022-07-17T00:16:11;102960.19;;;24.37;39.02
55656;BME280;41530;52.382;5.270;2022-07-17T00:18:38;102957.50;;;24.37;39.00
55656;BME280;41530;52.382;5.270;2022-07-17T00:21:04;102954.00;;;24.36;38.79
55656;BME280;41530;52.382;5.270;2022-07-17T00:23:31;102956.84;;;24.35;38.83
55656;BME280;41530;52.382;5.270;2022-07-17T00:25:58;102952.31;;;24.35;38.82
55656;BME280;41530;52.382;5.270;2022-07-17T00:28:25;102950.75;;;24.33;38.81
55656;BME280;41530;52.382;5.270;2022-07-17T00:30:51;102954.41;;;24.32;38.78
55656;BME280;41530;52.382;5.270;2022-07-17T00:33:18;102947.34;;;24.31;38.83
55656;BME280;41530;52.382;5.270;2022-07-17T00:35:45;102949.19;;;24.30;38.87
55656;BME280;41530;52.382;5.270;2022-07-17T00:38:12;102948.47;;;24.28;38.83
55656;BME280;41530;52.382;5.270;2022-07-17T00:40:40;102950.19;;;24.29;38.77
55656;BME280;41530;52.382;5.270;2022-07-17T00:43:07;102947.63;;;24.28;38.79
55656;BME280;41530;52.382;5.270;2022-07-17T00:45:33;102950.31;;;24.28;38.56
55656;BME280;41530;52.382;5.270;2022-07-17T00:48:02;102945.94;;;24.27;38.96
55656;BME280;41530;52.382;5.270;2022-07-17T00:50:41;102954.13;;;24.25;38.53
55656;BME280;41530;52.382;5.270;2022-07-17T00:53:08;102954.41;;;24.22;38.59
55656;BME280;41530;52.382;5.270;2022-07-17T00:55:37;102962.63;;;24.21;38.69
55656;BME280;41530;52.382;5.270;2022-07-17T00:58:10;102961.06;;;24.18;38.86
55656;BME280;41530;52.382;5.270;2022-07-17T01:00:38;102955.97;;;24.15;38.54
55656;BME280;41530;52.382;5.270;2022-07-17T01:03:05;102951.59;;;24.14;38.60
55656;BME280;41530;52.382;5.270;2022-07-17T01:05:35;102949.03;;;24.12;38.85
55656;BME280;41530;52.382;5.270;2022-07-17T01:08:02;102957.25;;;24.11;38.62
55656;BME280;41530;52.382;5.270;2022-07-17T01:10:29;102955.72;;;24.08;38.63
55656;BME280;41530;52.382;5.270;2022-07-17T01:12:56;102965.50;;;24.09;38.80
55656;BME280;41530;52.382;5.270;2022-07-17T01:15:22;102957.69;;;24.06;38.76
55656;BME280;41530;52.382;5.270;2022-07-17T01:17:50;102951.63;;;24.04;38.69
55656;BME280;41530;52.382;5.270;2022-07-17T01:20:17;102946.38;;;24.03;38.81
55656;BME280;41530;52.382;5.270;2022-07-17T01:22:46;102942.84;;;24.02;38.91
55656;BME280;41530;52.382;5.270;2022-07-17T01:25:15;102944.81;;;24.00;38.79
55656;BME280;41530;52.382;5.270;2022-07-17T01:27:42;102940.44;;;23.99;38.78
55656;BME280;41530;52.382;5.270;2022-07-17T01:30:10;102945.09;;;23.97;38.94
55656;BME280;41530;52.382;5.270;2022-07-17T01:32:39;102936.50;;;23.94;38.93
55656;BME280;41530;52.382;5.270;2022-07-17T01:35:08;102937.34;;;23.94;38.95
55656;BME280;41530;52.382;5.270;2022-07-17T01:37:35;102942.00;;;23.92;38.90
55656;BME280;41530;52.382;5.270;2022-07-17T01:40:02;102941.16;;;23.92;38.72
55656;BME280;41530;52.382;5.270;2022-07-17T01:42:29;102934.94;;;23.91;39.00
55656;BME280;41530;52.382;5.270;2022-07-17T01:44:58;102935.94;;;23.90;38.82
55656;BME280;41530;52.382;5.270;2022-07-17T01:47:24;102935.94;;;23.90;38.85
55656;BME280;41530;52.382;5.270;2022-07-17T01:49:53;102941.44;;;23.89;38.90
55656;BME280;41530;52.382;5.270;2022-07-17T01:52:22;102938.91;;;23.87;38.93
55656;BME280;41530;52.382;5.270;2022-07-17T01:54:49;102938.19;;;23.85;39.10
55656;BME280;41530;52.382;5.270;2022-07-17T01:57:18;102936.34;;;23.86;38.85
55656;BME280;41530;52.382;5.270;2022-07-17T01:59:44;102933.97;;;23.83;38.68
55656;BME280;41530;52.382;5.270;2022-07-17T02:02:13;102936.66;;;23.83;38.83
55656;BME280;41530;52.382;5.270;2022-07-17T02:04:42;102934.97;;;23.82;38.98
55656;BME280;41530;52.382;5.270;2022-07-17T02:07:09;102938.50;;;23.82;38.84
55656;BME280;41530;52.382;5.270;2022-07-17T02:09:36;102946.69;;;23.80;38.92
55656;BME280;41530;52.382;5.270;2022-07-17T02:12:03;102946.84;;;23.79;39.01
55656;BME280;41530;52.382;5.270;2022-07-17T02:14:30;102945.97;;;23.78;38.86
55656;BME280;41530;52.382;5.270;2022-07-17T02:16:57;102943.44;;;23.77;38.97
55656;BME280;41530;52.382;5.270;2022-07-17T02:19:23;102946.25;;;23.75;39.13
55656;BME280;41530;52.382;5.270;2022-07-17T02:21:50;102960.56;;;23.76;39.02
55656;BME280;41530;52.382;5.270;2022-07-17T02:24:17;102956.31;;;23.73;38.99
55656;BME280;41530;52.382;5.270;2022-07-17T02:26:44;102957.28;;;23.72;38.88
55656;BME280;41530;52.382;5.270;2022-07-17T02:29:10;102954.91;;;23.69;38.96
55656;BME280;41530;52.382;5.270;2022-07-17T02:31:37;102958.59;;;23.68;38.92
55656;BME280;41530;52.382;5.270;2022-07-17T02:34:04;102952.38;;;23.68;39.01
55656;BME280;41530;52.382;5.270;2022-07-17T02:36:30;102964.09;;;23.67;39.07
55656;BME280;41530;52.382;5.270;2022-07-17T02:38:57;102955.31;;;23.65;38.89
55656;BME280;41530;52.382;5.270;2022-07-17T02:41:24;102956.31;;;23.64;38.96
55656;BME280;41530;52.382;5.270;2022-07-17T02:43:50;102953.19;;;23.59;39.15
55656;BME280;41530;52.382;5.270;2022-07-17T02:46:17;102951.09;;;23.53;39.02
55656;BME280;41530;52.382;5.270;2022-07-17T02:48:43;102941.56;;;23.49;39.06
55656;BME280;41530;52.382;5.270;2022-07-17T02:51:10;102937.44;;;23.44;39.37
55656;BME280;41530;52.382;5.270;2022-07-17T02:53:37;102929.69;;;23.41;39.24
55656;BME280;41530;52.382;5.270;2022-07-17T02:56:04;102935.34;;;23.38;39.40
55656;BME280;41530;52.382;5.270;2022-07-17T02:58:30;102939.88;;;23.38;39.42
55656;BME280;41530;52.382;5.270;2022-07-17T03:00:57;102943.53;;;23.37;39.21
55656;BME280;41530;52.382;5.270;2022-07-17T03:03:24;102948.06;;;23.36;39.45
55656;BME280;41530;52.382;5.270;2022-07-17T03:05:51;102950.75;;;23.36;39.34
55656;BME280;41530;52.382;5.270;2022-07-17T03:08:17;102947.22;;;23.36;39.11
55656;BME280;41530;52.382;5.270;2022-07-17T03:10:44;102953.28;;;23.38;39.17
55656;BME280;41530;52.382;5.270;2022-07-17T03:13:10;102961.50;;;23.36;39.29
55656;BME280;41530;52.382;5.270;2022-07-17T03:15:37;102962.34;;;23.37;39.20
55656;BME280;41530;52.382;5.270;2022-07-17T03:18:04;102965.88;;;23.37;39.29
55656;BME280;41530;52.382;5.270;2022-07-17T03:20:31;102961.50;;;23.36;39.07
55656;BME280;41530;52.382;5.270;2022-07-17T03:22:57;102964.19;;;23.36;39.15
55656;BME280;41530;52.382;5.270;2022-07-17T03:25:24;102953.28;;;23.28;39.16
55656;BME280;41530;52.382;5.270;2022-07-17T03:27:50;102946.16;;;23.08;39.76
55656;BME280;41530;52.382;5.270;2022-07-17T03:30:17;102946.28;;;22.97;39.44
55656;BME280;41530;52.382;5.270;2022-07-17T03:32:43;102955.31;;;22.96;39.62
55656;BME280;41530;52.382;5.270;2022-07-17T03:35:10;102943.72;;;22.95;39.89
55656;BME280;41530;52.382;5.270;2022-07-17T03:37:37;102945.56;;;22.95;40.07
55656;BME280;41530;52.382;5.270;2022-07-17T03:40:06;102947.53;;;22.93;40.28
55656;BME280;41530;52.382;5.270;2022-07-17T03:42:33;102958.25;;;22.93;40.33
55656;BME280;41530;52.382;5.270;2022-07-17T03:45:00;102960.22;;;22.91;39.91
55656;BME280;41530;52.382;5.270;2022-07-17T03:47:27;102970.56;;;22.95;39.84
55656;BME280;41530;52.382;5.270;2022-07-17T03:49:53;102970.19;;;23.00;39.74
55656;BME280;41530;52.382;5.270;2022-07-17T03:52:20;102965.66;;;23.00;39.78
55656;BME280;41530;52.382;5.270;2022-07-17T03:54:46;102963.38;;;22.96;39.95
55656;BME280;41530;52.382;5.270;2022-07-17T03:57:13;102957.28;;;22.94;40.21
55656;BME280;41530;52.382;5.270;2022-07-17T03:59:40;102967.88;;;22.95;39.65
55656;BME280;41530;52.382;5.270;2022-07-17T04:02:06;102976.78;;;22.96;39.91
55656;BME280;41530;52.382;5.270;2022-07-17T04:04:33;102979.34;;;22.97;39.66
55656;BME280;41530;52.382;5.270;2022-07-17T04:06:59;102982.75;;;22.99;39.84
55656;BME280;41530;52.382;5.270;2022-07-17T04:09:26;102984.44;;;23.00;39.67
55656;BME280;41530;52.382;5.270;2022-07-17T04:11:53;102985.16;;;23.02;39.64
55656;BME280;41530;52.382;5.270;2022-07-17T04:14:19;102977.97;;;23.03;39.66
55656;BME280;41530;52.382;5.270;2022-07-17T04:16:46;102973.44;;;23.03;39.80
55656;BME280;41530;52.382;5.270;2022-07-17T04:19:12;102967.34;;;23.01;39.89
55656;BME280;41530;52.382;5.270;2022-07-17T04:21:39;102967.50;;;23.00;39.79
55656;BME280;41530;52.382;5.270;2022-07-17T04:24:07;102973.00;;;22.98;40.09
55656;BME280;41530;52.382;5.270;2022-07-17T04:26:33;102975.81;;;22.97;39.98
55656;BME280;41530;52.382;5.270;2022-07-17T04:29:01;102976.66;;;22.97;40.05
55656;BME280;41530;52.382;5.270;2022-07-17T04:31:28;102982.75;;;22.99;39.72
55656;BME280;41530;52.382;5.270;2022-07-17T04:33:55;102987.97;;;23.01;39.74
55656;BME280;41530;52.382;5.270;2022-07-17T04:36:22;102997.75;;;23.02;39.84
55656;BME280;41530;52.382;5.270;2022-07-17T04:38:49;102986.16;;;23.01;39.80
55656;BME280;41530;52.382;5.270;2022-07-17T04:41:15;102977.38;;;22.99;40.14
55656;BME280;41530;52.382;5.270;2022-07-17T04:43:42;102974.25;;;22.94;39.89
55656;BME280;41530;52.382;5.270;2022-07-17T04:46:08;102985.97;;;22.93;39.84
55656;BME280;41530;52.382;5.270;2022-07-17T04:48:35;102979.03;;;22.91;39.86
55656;BME280;41530;52.382;5.270;2022-07-17T04:51:02;102973.66;;;22.91;39.90
55656;BME280;41530;52.382;5.270;2022-07-17T04:53:29;102959.13;;;22.93;40.43
55656;BME280;41530;52.382;5.270;2022-07-17T04:55:57;102952.38;;;22.99;40.68
55656;BME280;41530;52.382;5.270;2022-07-17T04:58:23;102942.47;;;22.99;40.54
55656;BME280;41530;52.382;5.270;2022-07-17T05:00:50;102951.38;;;23.00;40.37
55656;BME280;41530;52.382;5.270;2022-07-17T05:03:17;102953.22;;;23.09;40.52
55656;BME280;41530;52.382;5.270;2022-07-17T05:05:43;102946.59;;;23.13;40.75
55656;BME280;41530;52.382;5.270;2022-07-17T05:08:10;102954.41;;;23.16;40.66
55656;BME280;41530;52.382;5.270;2022-07-17T05:10:37;102963.00;;;23.20;40.75
55656;BME280;41530;52.382;5.270;2022-07-17T05:13:04;102951.13;;;23.22;40.84
55656;BME280;41530;52.382;5.270;2022-07-17T05:15:30;102971.38;;;23.26;40.75
55656;BME280;41530;52.382;5.270;2022-07-17T05:18:05;102958.53;;;23.30;40.82
55656;BME280;41530;52.382;5.270;2022-07-17T05:20:32;102962.59;;;23.34;40.53
55656;BME280;41530;52.382;5.270;2022-07-17T05:22:58;102961.50;;;23.36;40.73
55656;BME280;41530;52.382;5.270;2022-07-17T05:25:25;102968.28;;;23.40;40.90
55656;BME280;41530;52.382;5.270;2022-07-17T05:30:18;102962.47;;;23.45;40.90
55656;BME280;41530;52.382;5.270;2022-07-17T05:32:45;102972.09;;;23.48;40.74
55656;BME280;41530;52.382;5.270;2022-07-17T05:35:11;102966.72;;;23.48;40.65
55656;BME280;41530;52.382;5.270;2022-07-17T05:37:38;102962.19;;;23.48;40.63
55656;BME280;41530;52.382;5.270;2022-07-17T05:40:05;102970.03;;;23.51;40.71
55656;BME280;41530;52.382;5.270;2022-07-17T05:42:32;102974.41;;;23.52;40.45
55656;BME280;41530;52.382;5.270;2022-07-17T05:45:02;102979.66;;;23.54;40.62
55656;BME280;41530;52.382;5.270;2022-07-17T05:47:28;102976.97;;;23.54;40.31
55656;BME280;41530;52.382;5.270;2022-07-17T05:49:55;102986.72;;;23.55;40.49
55656;BME280;41530;52.382;5.270;2022-07-17T05:52:22;102984.88;;;23.55;40.80
55656;BME280;41530;52.382;5.270;2022-07-17T05:54:48;102990.81;;;23.59;40.62
55656;BME280;41530;52.382;5.270;2022-07-17T05:57:15;102994.47;;;23.58;40.70
55656;BME280;41530;52.382;5.270;2022-07-17T05:59:41;102998.72;;;23.60;40.48
55656;BME280;41530;52.382;5.270;2022-07-17T06:02:08;103005.81;;;23.61;40.58
55656;BME280;41530;52.382;5.270;2022-07-17T06:04:35;103006.53;;;23.63;40.81
55656;BME280;41530;52.382;5.270;2022-07-17T06:07:01;103010.78;;;23.66;40.92
55656;BME280;41530;52.382;5.270;2022-07-17T06:09:28;103025.91;;;23.67;40.51
55656;BME280;41530;52.382;5.270;2022-07-17T06:11:55;103019.56;;;23.68;40.34
55656;BME280;41530;52.382;5.270;2022-07-17T06:14:21;103019.25;;;23.71;40.46
55656;BME280;41530;52.382;5.270;2022-07-17T06:16:50;103026.31;;;23.72;40.38
55656;BME280;41530;52.382;5.270;2022-07-17T06:19:17;103033.13;;;23.76;40.30
55656;BME280;41530;52.382;5.270;2022-07-17T06:21:43;103022.09;;;23.79;40.25
55656;BME280;41530;52.382;5.270;2022-07-17T06:24:10;103018.28;;;23.82;40.50
55656;BME280;41530;52.382;5.270;2022-07-17T06:26:36;103024.22;;;23.85;40.41
55656;BME280;41530;52.382;5.270;2022-07-17T06:29:03;103034.69;;;23.88;40.34
55656;BME280;41530;52.382;5.270;2022-07-17T06:31:29;103025.50;;;23.91;40.25
55656;BME280;41530;52.382;5.270;2022-07-17T06:33:57;103035.13;;;23.93;40.28
55656;BME280;41530;52.382;5.270;2022-07-17T06:36:24;103040.22;;;23.96;40.49
55656;BME280;41530;52.382;5.270;2022-07-17T06:38:50;103041.63;;;24.00;40.32
55656;BME280;41530;52.382;5.270;2022-07-17T06:41:17;103048.56;;;24.03;40.42
55656;BME280;41530;52.382;5.270;2022-07-17T06:43:44;103030.88;;;24.00;40.11
55656;BME280;41530;52.382;5.270;2022-07-17T06:46:10;103039.09;;;24.08;40.46
55656;BME280;41530;52.382;5.270;2022-07-17T06:48:37;103035.25;;;24.11;40.36
55656;BME280;41530;52.382;5.270;2022-07-17T06:51:03;103036.09;;;24.11;40.36
55656;BME280;41530;52.382;5.270;2022-07-17T06:53:30;103028.75;;;24.13;40.22
55656;BME280;41530;52.382;5.270;2022-07-17T06:55:56;103031.16;;;24.16;40.21
55656;BME280;41530;52.382;5.270;2022-07-17T06:58:23;103032.56;;;24.21;40.24
55656;BME280;41530;52.382;5.270;2022-07-17T07:00:50;103028.78;;;24.23;40.31
55656;BME280;41530;52.382;5.270;2022-07-17T07:03:16;103024.09;;;24.25;40.27
55656;BME280;41530;52.382;5.270;2022-07-17T07:05:43;103031.88;;;24.28;40.09
55656;BME280;41530;52.382;5.270;2022-07-17T07:08:09;103031.72;;;24.30;39.94
55656;BME280;41530;52.382;5.270;2022-07-17T07:10:36;103025.63;;;24.28;40.27
55656;BME280;41530;52.382;5.270;2022-07-17T07:13:02;103026.78;;;24.35;39.93
55656;BME280;41530;52.382;5.270;2022-07-17T07:15:29;103024.75;;;24.37;39.92
55656;BME280;41530;52.382;5.270;2022-07-17T07:17:55;103014.72;;;24.39;40.17
55656;BME280;41530;52.382;5.270;2022-07-17T07:20:22;103018.13;;;24.41;39.88
55656;BME280;41530;52.382;5.270;2022-07-17T07:22:48;103024.06;;;24.44;39.94
55656;BME280;41530;52.382;5.270;2022-07-17T07:25:15;103018.53;;;24.46;39.91
55656;BME280;41530;52.382;5.270;2022-07-17T07:27:41;103026.34;;;24.49;39.91
55656;BME280;41530;52.382;5.270;2022-07-17T07:30:08;103029.69;;;24.51;39.91
55656;BME280;41530;52.382;5.270;2022-07-17T07:32:38;103034.78;;;24.54;40.07
55656;BME280;41530;52.382;5.270;2022-07-17T07:35:06;103039.03;;;24.57;39.86
55656;BME280;41530;52.382;5.270;2022-07-17T07:37:34;103023.75;;;24.57;39.90
55656;BME280;41530;52.382;5.270;2022-07-17T07:40:01;103028.84;;;24.60;39.76
55656;BME280;41530;52.382;5.270;2022-07-17T07:42:28;103026.88;;;24.62;39.67
55656;BME280;41530;52.382;5.270;2022-07-17T07:44:55;103026.88;;;24.62;39.80
55656;BME280;41530;52.382;5.270;2022-07-17T07:47:22;103025.69;;;24.65;39.50
55656;BME280;41530;52.382;5.270;2022-07-17T07:49:48;103028.09;;;24.68;39.55
55656;BME280;41530;52.382;5.270;2022-07-17T07:52:15;103029.66;;;24.70;39.54
55656;BME280;41530;52.382;5.270;2022-07-17T07:54:42;103023.28;;;24.71;39.61
55656;BME280;41530;52.382;5.270;2022-07-17T07:57:08;103030.22;;;24.74;39.59
55656;BME280;41530;52.382;5.270;2022-07-17T07:59:35;103021.16;;;24.75;39.53
55656;BME280;41530;52.382;5.270;2022-07-17T08:02:02;103024.38;;;24.78;39.37
55656;BME280;41530;52.382;5.270;2022-07-17T08:04:28;103015.31;;;24.79;39.75
55656;BME280;41530;52.382;5.270;2022-07-17T08:06:55;103018.69;;;24.81;39.35
55656;BME280;41530;52.382;5.270;2022-07-17T08:09:22;103019.41;;;24.83;39.35
55656;BME280;41530;52.382;5.270;2022-07-17T08:11:49;103012.31;;;24.82;39.33
55656;BME280;41530;52.382;5.270;2022-07-17T08:14:16;103020.69;;;24.89;39.19
55656;BME280;41530;52.382;5.270;2022-07-17T08:16:43;103020.69;;;24.89;39.10
55656;BME280;41530;52.382;5.270;2022-07-17T08:19:10;103011.44;;;24.92;39.04
55656;BME280;41530;52.382;5.270;2022-07-17T08:21:36;103016.56;;;24.95;39.07
55656;BME280;41530;52.382;5.270;2022-07-17T08:24:03;103026.34;;;24.96;39.04
55656;BME280;41530;52.382;5.270;2022-07-17T08:26:30;103022.50;;;24.98;39.11
55656;BME280;41530;52.382;5.270;2022-07-17T08:28:57;103026.75;;;25.01;39.12
55656;BME280;41530;52.382;5.270;2022-07-17T08:31:24;103022.22;;;25.01;39.12
55656;BME280;41530;52.382;5.270;2022-07-17T08:33:51;103017.22;;;25.06;39.11
55656;BME280;41530;52.382;5.270;2022-07-17T08:36:18;103023.28;;;25.08;39.01
55656;BME280;41530;52.382;5.270;2022-07-17T08:38:45;103014.06;;;25.11;39.12
55656;BME280;41530;52.382;5.270;2022-07-17T08:41:14;103018.47;;;25.12;38.93
55656;BME280;41530;52.382;5.270;2022-07-17T08:43:43;103021.72;;;25.15;38.72
55656;BME280;41530;52.382;5.270;2022-07-17T08:46:11;103016.16;;;25.17;39.08
55656;BME280;41530;52.382;5.270;2022-07-17T08:48:44;103015.84;;;25.20;38.99
55656;BME280;41530;52.382;5.270;2022-07-17T08:51:11;103021.09;;;25.21;39.05
55656;BME280;41530;52.382;5.270;2022-07-17T08:53:38;103018.13;;;25.25;38.98
55656;BME280;41530;52.382;5.270;2022-07-17T08:56:07;103020.66;;;25.26;39.11
55656;BME280;41530;52.382;5.270;2022-07-17T08:58:33;103025.75;;;25.29;39.17
55656;BME280;41530;52.382;5.270;2022-07-17T09:01:00;103023.72;;;25.31;39.25
55656;BME280;41530;52.382;5.270;2022-07-17T09:03:27;103018.19;;;25.33;39.24
55656;BME280;41530;52.382;5.270;2022-07-17T09:05:54;103024.28;;;25.35;39.30
55656;BME280;41530;52.382;5.270;2022-07-17T09:08:23;103020.59;;;25.36;39.63
55656;BME280;41530;52.382;5.270;2022-07-17T09:10:52;103017.59;;;25.39;39.20
55656;BME280;41530;52.382;5.270;2022-07-17T09:13:21;103015.47;;;25.42;39.51
55656;BME280;41530;52.382;5.270;2022-07-17T09:15:51;103010.06;;;25.42;39.61
55656;BME280;41530;52.382;5.270;2022-07-17T09:18:18;103008.91;;;25.45;39.31
55656;BME280;41530;52.382;5.270;2022-07-17T09:20:53;103011.44;;;25.46;39.65
55656;BME280;41530;52.382;5.270;2022-07-17T09:23:22;103009.44;;;25.48;39.67
55656;BME280;41530;52.382;5.270;2022-07-17T09:25:54;103001.34;;;25.48;39.46
55656;BME280;41530;52.382;5.270;2022-07-17T09:28:22;102995.97;;;25.48;39.61
55656;BME280;41530;52.382;5.270;2022-07-17T09:30:51;103001.75;;;25.53;39.75
55656;BME280;41530;52.382;5.270;2022-07-17T09:33:24;102995.38;;;25.54;39.83
55656;BME280;41530;52.382;5.270;2022-07-17T09:36:13;103006.84;;;25.56;39.81
55656;BME280;41530;52.382;5.270;2022-07-17T09:38:41;102999.59;;;25.57;39.86
55656;BME280;41530;52.382;5.270;2022-07-17T09:41:16;103010.22;;;25.58;39.44
55656;BME280;41530;52.382;5.270;2022-07-17T09:43:47;102995.63;;;25.61;39.59
55656;BME280;41530;52.382;5.270;2022-07-17T09:46:16;103008.09;;;25.62;39.78
55656;BME280;41530;52.382;5.270;2022-07-17T09:48:46;103010.66;;;25.64;39.79
55656;BME280;41530;52.382;5.270;2022-07-17T09:51:17;103016.91;;;25.64;39.83
55656;BME280;41530;52.382;5.270;2022-07-17T09:53:46;103006.81;;;25.66;39.93
55656;BME280;41530;52.382;5.270;2022-07-17T09:56:16;103002.97;;;25.69;39.91
55656;BME280;41530;52.382;5.270;2022-07-17T09:58:52;103002.78;;;25.70;39.97
55656;BME280;41530;52.382;5.270;2022-07-17T10:01:20;103000.09;;;25.70;39.89
55656;BME280;41530;52.382;5.270;2022-07-17T10:03:47;103002.63;;;25.72;40.05
55656;BME280;41530;52.382;5.270;2022-07-17T10:06:20;103013.13;;;25.75;39.66
55656;BME280;41530;52.382;5.270;2022-07-17T10:08:47;103005.72;;;25.77;40.14
55656;BME280;41530;52.382;5.270;2022-07-17T10:11:14;103011.13;;;25.77;39.82
55656;BME280;41530;52.382;5.270;2022-07-17T10:13:44;103005.56;;;25.78;39.89
55656;BME280;41530;52.382;5.270;2022-07-17T10:16:12;103015.22;;;25.81;39.65
55656;BME280;41530;52.382;5.270;2022-07-17T10:18:42;103010.50;;;25.83;40.05
55656;BME280;41530;52.382;5.270;2022-07-17T10:23:36;103006.97;;;25.82;40.12
55656;BME280;41530;52.382;5.270;2022-07-17T10:26:11;103007.47;;;25.86;40.14
55656;BME280;41530;52.382;5.270;2022-07-17T10:28:46;103010.03;;;25.87;40.13
55656;BME280;41530;52.382;5.270;2022-07-17T10:31:27;103007.34;;;25.87;40.06
55656;BME280;41530;52.382;5.270;2022-07-17T10:34:01;103000.94;;;25.88;40.35
55656;BME280;41530;52.382;5.270;2022-07-17T10:36:35;103004.47;;;25.89;40.06
55656;BME280;41530;52.382;5.270;2022-07-17T10:39:17;103011.56;;;25.90;40.41
55656;BME280;41530;52.382;5.270;2022-07-17T10:41:56;103013.13;;;25.92;40.07
55656;BME280;41530;52.382;5.270;2022-07-17T10:44:31;103009.56;;;25.92;40.12
55656;BME280;41530;52.382;5.270;2022-07-17T10:47:00;103007.72;;;25.92;40.27
55656;BME280;41530;52.382;5.270;2022-07-17T10:49:27;103006.72;;;25.94;40.30
55656;BME280;41530;52.382;5.270;2022-07-17T10:51:53;103012.81;;;25.96;40.39
55656;BME280;41530;52.382;5.270;2022-07-17T10:54:20;103010.13;;;25.96;40.26
55656;BME280;41530;52.382;5.270;2022-07-17T10:57:00;103009.94;;;25.97;40.48
55656;BME280;41530;52.382;5.270;2022-07-17T10:59:29;103002.69;;;25.98;40.24
55656;BME280;41530;52.382;5.270;2022-07-17T11:01:57;102997.16;;;25.99;40.35
55656;BME280;41530;52.382;5.270;2022-07-17T11:04:24;103007.78;;;26.01;40.32
55656;BME280;41530;52.382;5.270;2022-07-17T11:06:51;102998.84;;;26.00;40.52
55656;BME280;41530;52.382;5.270;2022-07-17T11:09:18;103006.63;;;26.03;40.43
55656;BME280;41530;52.382;5.270;2022-07-17T11:11:51;103001.22;;;26.03;40.64
55656;BME280;41530;52.382;5.270;2022-07-17T11:14:20;103005.63;;;26.04;40.55
55656;BME280;41530;52.382;5.270;2022-07-17T11:16:54;103005.47;;;26.06;40.76
55656;BME280;41530;52.382;5.270;2022-07-17T11:21:49;103003.63;;;26.06;40.68
55656;BME280;41530;52.382;5.270;2022-07-17T11:24:16;103001.78;;;26.07;40.34
55656;BME280;41530;52.382;5.270;2022-07-17T11:26:44;103000.94;;;26.06;40.47
55656;BME280;41530;52.382;5.270;2022-07-17T11:29:11;103002.63;;;26.07;40.50
55656;BME280;41530;52.382;5.270;2022-07-17T11:31:38;103004.97;;;26.10;40.70
55656;BME280;41530;52.382;5.270;2022-07-17T11:34:06;102999.59;;;26.10;40.48
55656;BME280;41530;52.382;5.270;2022-07-17T11:36:39;103011.06;;;26.12;40.33
55656;BME280;41530;52.382;5.270;2022-07-17T11:39:13;103003.84;;;26.13;40.61
55656;BME280;41530;52.382;5.270;2022-07-17T11:44:10;103006.38;;;26.14;40.56
55656;BME280;41530;52.382;5.270;2022-07-17T11:46:38;103002.53;;;26.17;40.71
55656;BME280;41530;52.382;5.270;2022-07-17T11:49:06;102998.13;;;26.16;40.50
55656;BME280;41530;52.382;5.270;2022-07-17T11:51:38;102999.81;;;26.17;40.10
55656;BME280;41530;52.382;5.270;2022-07-17T11:54:08;102996.97;;;26.18;40.53
55656;BME280;41530;52.382;5.270;2022-07-17T11:56:35;102988.88;;;26.18;40.36
55656;BME280;41530;52.382;5.270;2022-07-17T11:59:02;102993.44;;;26.18;40.22
55656;BME280;41530;52.382;5.270;2022-07-17T12:01:43;103002.06;;;26.21;40.47
55656;BME280;41530;52.382;5.270;2022-07-17T12:04:13;102999.22;;;26.23;40.41
55656;BME280;41530;52.382;5.270;2022-07-17T12:06:43;102994.63;;;26.23;40.34
55656;BME280;41530;52.382;5.270;2022-07-17T12:09:10;102998.19;;;26.24;40.57
55656;BME280;41530;52.382;5.270;2022-07-17T12:11:49;102987.22;;;26.25;40.30
55656;BME280;41530;52.382;5.270;2022-07-17T12:14:16;102982.53;;;26.27;40.34
55656;BME280;41530;52.382;5.270;2022-07-17T12:16:43;102976.16;;;26.29;40.18
55656;BME280;41530;52.382;5.270;2022-07-17T12:19:13;102975.16;;;26.30;40.48
55656;BME280;41530;52.382;5.270;2022-07-17T12:21:58;102976.69;;;26.32;40.49
55656;BME280;41530;52.382;5.270;2022-07-17T12:26:57;102971.13;;;26.34;40.42
55656;BME280;41530;52.382;5.270;2022-07-17T12:29:26;102962.19;;;26.33;40.45
55656;BME280;41530;52.382;5.270;2022-07-17T12:32:06;102968.09;;;26.37;40.36
55656;BME280;41530;52.382;5.270;2022-07-17T12:34:35;102956.50;;;26.36;40.53
55656;BME280;41530;52.382;5.270;2022-07-17T12:37:02;102968.78;;;26.39;40.23
55656;BME280;41530;52.382;5.270;2022-07-17T12:39:29;102967.78;;;26.40;40.63
55656;BME280;41530;52.382;5.270;2022-07-17T12:41:57;102965.94;;;26.40;40.83
55656;BME280;41530;52.382;5.270;2022-07-17T12:44:23;102967.47;;;26.43;40.71
55656;BME280;41530;52.382;5.270;2022-07-17T12:46:50;102970.19;;;26.43;40.17
55656;BME280;41530;52.382;5.270;2022-07-17T12:49:17;102961.06;;;26.44;40.28
55656;BME280;41530;52.382;5.270;2022-07-17T12:51:43;102963.78;;;26.44;40.27
55656;BME280;41530;52.382;5.270;2022-07-17T12:54:10;102948.28;;;26.46;40.36
55656;BME280;41530;52.382;5.270;2022-07-17T12:56:36;102944.56;;;26.47;40.24
55656;BME280;41530;52.382;5.270;2022-07-17T12:59:03;102942.56;;;26.49;40.03
55656;BME280;41530;52.382;5.270;2022-07-17T13:01:30;102941.56;;;26.50;40.23
55656;BME280;41530;52.382;5.270;2022-07-17T13:03:57;102941.38;;;26.51;40.42
55656;BME280;41530;52.382;5.270;2022-07-17T13:06:23;102940.34;;;26.52;40.32